Blue Oak Ranch Reserve, California Weather observations

Data are for 10 minute period ending at time listed.
 Day   Time   Solar   Ave.   Ave.  Ave.  Vector  Max.   Baro.   Total    
  of    of     Rad.   Air    Rel.  Wind   Wind   Wind  Press.  Precip.   
Year   Day            Temp.  Hum.  Speed  Dir.   Gust                    
2018   (PST)  Kw/m2    F      %     mph   deg.    mph    mb.     in.     
-------------------------------------------------------------------------
 169    8:50   0.65   68.2    56    1.9   246     2.8   951.1    0.00 
 169    9:00   0.68   69.4    54    1.9   265     3.1   951.2    0.00 
 169    9:10   0.70   69.3    54    1.9   236     2.7   951.2    0.00 
 169    9:20   0.72   69.4    54    1.8   242     3.2   951.2    0.00 
 169    9:30   0.75   70.4    53    2.0   244     3.5   951.2    0.00 
 169    9:40   0.77   70.1    54    2.2   250     3.6   951.2    0.00 
 169    9:50   0.79   70.8    53    2.5   247     4.5   951.2    0.00 
 169   10:00   0.81   71.0    52    2.3   245     5.3   951.2    0.00 
 169   10:10   0.82   70.3    53    2.8   244     4.7   951.2    0.00 
 169   10:20   0.84   70.4    53    2.6   248     5.1   951.2    0.00 
 169   10:30   0.86   71.1    52    2.8   257     5.8   951.3    0.00 
 169   10:40   0.88   71.1    51    2.6   255     4.8   951.3    0.00 
 169   10:50   0.90   71.2    51    2.6   265     5.3   951.3    0.00 
 169   11:00   0.88   71.8    50    3.3   236     5.6   951.2    0.00 
 169   11:10   0.79   71.2    52    3.2   238     4.8   951.2    0.00 
 169   11:20   0.90   70.7    53    3.2   236     5.4   951.2    0.00 
 169   11:30   0.81   70.8    53    3.0   250     5.1   951.2    0.00 
 169   11:40   0.88   71.7    52    3.4   241     6.0   951.1    0.00 
 169   11:50   0.86   72.5    51    2.9   254     5.7   951.1    0.00 
 169   12:00   0.87   73.7    50    3.0   257     4.7   951.1    0.00 
 169   12:10   0.94   74.5    46    3.0   264     5.2   951.0    0.00 
 169   12:20   0.90   76.1    44    2.4   263     4.4   951.0    0.00 
 169   12:30   0.91   75.2    46    3.9   256     7.2   950.9    0.00 
 169   12:40   0.89   74.0    47    3.8   247     6.2   950.9    0.00 
 169   12:50   0.85   74.1    46    3.9   239     5.7   950.9    0.00 
 169   13:00   0.91   75.1    45    3.0   252     6.2   950.9    0.00 
 169   13:10   0.89   76.8    41    2.9   252     5.9   950.9    0.00 
 169   13:20   0.88   76.5    42    4.3   282     6.6   950.9    0.00 
 169   13:30   0.87   76.7    41    3.7   270     6.6   951.0    0.00 
 169   13:40   0.76   76.2    43    3.8   288     6.2   951.0    0.00 
 169   13:50   0.85   76.9    40    3.6   280     5.8   951.0    0.00 
 169   14:00   0.83   76.4    39    3.7   286     6.9   951.0    0.00 
 169   14:10   0.81   77.6    36    3.7   281     5.8   951.0    0.00 
 169   14:20   0.80   77.1    37    3.3   281     6.6   950.9    0.00 
 169   14:30   0.78   76.9    37    4.0   277     6.4   950.8    0.00 
 169   14:40   0.76   78.2    36    3.6   284     6.4   950.8    0.00 
 169   14:50   0.74   78.2    35    4.0   289     6.3   950.7    0.00 
 169   15:00   0.71   77.1    34    4.0   298     6.2   950.7    0.00 
 169   15:10   0.69   76.4    34    3.9   294     6.1   950.6    0.00 
 169   15:20   0.67   77.6    31    3.7   283     6.4   950.5    0.00 
 169   15:30   0.65   77.6    30    3.8   281     6.3   950.6    0.00 
 169   15:40   0.62   77.8    31    3.5   280     5.4   950.5    0.00 
 169   15:50   0.59   77.8    33    3.6   289     5.8   950.4    0.00 
 169   16:00   0.57   77.7    33    4.0   289     5.5   950.3    0.00 
 169   16:10   0.54   77.9    32    3.9   285     6.1   950.3    0.00 
 169   16:20   0.51   77.4    32    3.3   280     5.9   950.4    0.00 
 169   16:30   0.48   76.4    33    4.1   265     6.0   950.3    0.00 
 169   16:40   0.46   76.0    33    3.8   294     5.5   950.2    0.00 
 169   16:50   0.43   75.5    35    3.6   290     5.4   950.1    0.00 
 169   17:00   0.40   75.7    36    3.7   286     5.4   950.1    0.00 
 169   17:10   0.37   76.0    36    3.2   282     4.5   950.1    0.00 
 169   17:20   0.34   76.1    36    3.2   285     4.7   950.1    0.00 
 169   17:30   0.31   75.9    36    3.4   287     4.9   950.1    0.00 
 169   17:40   0.28   75.3    35    3.4   282     4.7   950.1    0.00 
 169   17:50   0.25   74.9    35    2.5   283     4.0   950.1    0.00 
 169   18:00   0.22   74.5    36    2.5   283     4.3   950.1    0.00 
 169   18:10   0.20   75.1    37    1.9   272     3.0   950.0    0.00 
 169   18:20   0.17   75.0    38    2.2   279     3.1   950.1    0.00 
 169   18:30   0.14   74.0    41    2.1   262     3.9   950.1    0.00 
 169   18:40   0.12   71.1    50    1.7   243     3.3   950.2    0.00 
 169   18:50   0.09   68.4    55    0.9   271     2.4   950.3    0.00 
 169   19:00   0.06   67.0    57    0.5   248     1.3   950.3    0.00 
 169   19:10   0.04   66.3    58    0.7   324     1.4   950.3    0.00 
 169   19:20   0.01   63.0    63    0.5    23     1.1   950.4    0.00 
 169   19:30   0.01   61.1    67    0.1   288     0.7   950.4    0.00 
 169   19:40   0.00   59.7    69    0.5   307     0.8   950.4    0.00 
 169   19:50   0.00   58.7    69    0.5   314     1.0   950.4    0.00 
 169   20:00   0.00   58.3    67    0.4   315     0.9   950.4    0.00 
 169   20:10   0.00   57.6    68    0.1   162     0.7   950.5    0.00 
 169   20:20   0.00   57.0    68    0.0   244     0.4   950.5    0.00 
 169   20:30   0.00   56.6    67    0.2   272     0.7   950.7    0.00 
 169   20:40   0.00   56.2    67    0.0   327     0.5   950.7    0.00 
 169   20:50   0.00   56.4    65    0.3   302     0.9   950.8    0.00 
 169   21:00   0.00   55.6    64    0.2    84     1.1   950.9    0.00 
 169   21:10   0.00   55.4    63    0.1   141     0.5   950.9    0.00 
 169   21:20   0.00   54.8    64    0.3   297     1.6   950.9    0.00 
 169   21:30   0.00   54.5    64    0.4   310     1.1   950.9    0.00 
 169   21:40   0.00   54.2    64    0.2   283     0.8   951.0    0.00 
 169   21:50   0.00   54.0    64    0.2    77     0.8   951.0    0.00 
 169   22:00   0.00   53.7    64    0.2    40     0.9   950.9    0.00 
 169   22:10   0.00   53.2    64    0.2   345     0.8   950.8    0.00 
 169   22:20   0.00   53.0    64    0.0   280     0.4   950.7    0.00 
 169   22:30   0.00   53.4    63    0.4   287     1.1   950.8    0.00 
 169   22:40   0.00   53.2    61    0.2   340     0.7   950.8    0.00 
 169   22:50   0.00   53.5    59    0.9    14     1.8   950.6    0.00 
 169   23:00   0.00   53.2    61    0.9   280     1.7   950.6    0.00 
 169   23:10   0.00   52.5    63    0.4   266     1.1   950.6    0.00 
 169   23:20   0.00   52.3    62    0.3    18     0.9   950.6    0.00 
 169   23:30   0.00   52.5    65    0.1   305     0.6   950.7    0.00 
 169   23:40   0.00   52.3    67    0.3    76     0.9   950.7    0.00 
 169   23:50   0.00   51.3    70    0.6   286     0.9   950.6    0.00 
 170    0:00   0.00   50.8    72    0.1   317     0.6   950.5    0.00 
 170    0:10   0.00   50.8    70    0.1    17     0.8   950.4    0.00 
 170    0:20   0.00   50.7    70    0.2   212     0.7   950.4    0.00 
 170    0:30   0.00   51.0    69    0.3   320     0.7   950.4    0.00 
 170    0:40   0.00   50.3    71    0.4   328     1.0   950.3    0.00 
 170    0:50   0.00   50.5    71    0.3   304     0.8   950.3    0.00 
 170    1:00   0.00   50.6    72    0.4   284     1.5   950.1    0.00 
 170    1:10   0.00   50.8    72    0.6    18     1.5   950.1    0.00 
 170    1:20   0.00   50.7    74    0.1    77     1.0   950.1    0.00 
 170    1:30   0.00   51.1    74    0.3    65     0.9   950.1    0.00 
 170    1:40   0.00   50.8    75    0.6    42     1.2   950.2    0.00 
 170    1:50   0.00   50.6    76    0.3   305     0.8   950.1    0.00 
 170    2:00   0.00   50.7    76    0.1   292     0.5   950.0    0.00 
 170    2:10   0.00   50.4    76    0.1    65     0.7   950.0    0.00 
 170    2:20   0.00   50.3    77    0.1   318     0.8   949.9    0.00 
 170    2:30   0.00   50.7    76    0.3    81     0.8   949.8    0.00 
 170    2:40   0.00   50.6    77    0.1   253     0.4   949.8    0.00 
 170    2:50   0.00   50.5    78    0.1    11     0.5   949.7    0.00 
 170    3:00   0.00   50.5    79    0.0    42     0.2   949.7    0.00 
 170    3:10   0.00   50.6    79    0.0     0     0.0   949.6    0.00 
 170    3:20   0.00   50.8    78    0.4   298     1.1   949.7    0.00 
 170    3:30   0.00   50.7    80    0.9    25     1.7   949.7    0.00 
 170    3:40   0.00   50.1    81    0.3   102     1.6   949.7    0.00 
 170    3:50   0.00   50.6    81    0.3   294     1.1   949.5    0.00 
 170    4:00   0.00   50.0    82    0.3   328     0.8   949.6    0.00 
 170    4:10   0.00   50.4    83    0.4    51     1.3   949.7    0.00 
 170    4:20   0.00   50.8    82    0.0    24     0.3   949.8    0.00 
 170    4:30   0.00   50.2    83    0.4   290     1.1   949.8    0.00 
 170    4:40   0.00   49.9    84    0.6     8     1.4   949.8    0.00 
 170    4:50   0.01   49.9    84    0.4   343     1.2   949.9    0.00 
 170    5:00   0.01   50.3    83    0.2   282     0.7   950.0    0.00 
 170    5:10   0.02   50.6    83    0.4    89     0.8   950.0    0.00 
 170    5:20   0.02   50.8    82    0.1    55     0.6   950.0    0.00 
 170    5:30   0.02   51.0    82    0.4    48     0.9   950.1    0.00 
 170    5:40   0.02   50.8    82    0.6   302     1.4   950.3    0.00 
 170    5:50   0.05   50.6    83    0.5    58     1.2   950.4    0.00 
 170    6:00   0.11   51.7    82    0.3    52     0.9   950.4    0.00 
 170    6:10   0.16   54.2    78    0.8   285     1.4   950.5    0.00 
 170    6:20   0.17   56.6    71    0.3   294     0.8   950.6    0.00 
 170    6:30   0.23   60.0    65    0.0    72     0.4   950.6    0.00 
 170    6:40   0.26   65.2    55    0.3    77     0.8   950.6    0.00 
 170    6:50   0.29   67.2    52    0.6   108     1.1   950.7    0.00 
 170    7:00   0.32   67.0    50    0.3   140     0.9   950.7    0.00 
 170    7:10   0.35   69.8    47    0.0   136     0.4   950.7    0.00 
 170    7:20   0.38   72.3    43    0.1   108     0.4   950.8    0.00 
 170    7:30   0.41   73.5    43    0.2   148     0.9   950.8    0.00 
 170    7:40   0.44   74.4    43    0.9   243     1.8   950.8    0.00 
 170    7:50   0.47   74.9    42    1.1   227     1.8   950.8    0.00 
 170    8:00   0.49   74.9    42    1.1   227     2.1   950.8    0.00 
 170    8:10   0.52   75.2    42    1.6   241     2.7   950.8    0.00 
 170    8:20   0.55   73.4    42    2.3   229     3.4   950.8    0.00 
 170    8:30   0.58   71.7    43    2.5   245     4.5   950.9    0.00 
 170    8:40   0.60   70.5    47    1.9   256     3.2   950.9    0.00 

Return to Blue Oak Ranch Reserve graphs page.


Western Regional Climate Center,wrcc@dri.edu